LDZA/ZAG METAR and TAF weather

Enter ICAO airport designator
Station Type Date Time Source
LDZA METAR 2024/04/18 06:30 UTC NOAA

LDZA 180630Z VRB02KT CAVOK 07/05 Q1009 NOSIG


Station Type Date Time Source
LDZA Decoded METAR 2024/04/18 06:30 UTC NOAA

Zagreb / Pleso, Croatia (LDZA) 45-44N 016-04E 107M
Apr 18, 2024 - 02:30 AM EDT / 2024.04.18 0630 UTC
Wind: Variable at 2 MPH (2 KT):0
Visibility: greater than 7 mile(s):0
Temperature: 44 F (7 C)
Dew Point: 41 F (5 C)
Relative Humidity: 87%
Pressure (altimeter): 29.80 in. Hg (1009 hPa)
ob: LDZA 180630Z VRB02KT CAVOK 07/05 Q1009 NOSIG
cycle: 6

Station Type Date Time Source
LDZA TAF 2024/04/18 18:28 UTC NOAA